createdAt,value
2022-11-04T00:03:38.496Z,93.43
2022-11-04T00:09:04.403Z,102.75
2022-11-04T00:12:05.831Z,106.63
2022-11-04T00:14:47.516Z,113.95
2022-11-04T00:17:40.510Z,97.18
2022-11-04T00:20:44.089Z,100.27
2022-11-04T00:23:40.404Z,94.43
2022-11-04T00:26:33.966Z,86.60
2022-11-04T00:29:16.918Z,98.60
2022-11-04T00:32:11.296Z,95.63
2022-11-04T00:34:52.225Z,96.18
2022-11-04T00:37:42.008Z,103.20
2022-11-04T00:40:37.372Z,90.55
2022-11-04T00:43:18.395Z,100.75
2022-11-04T00:46:08.511Z,103.03
2022-11-04T00:48:55.500Z,109.63
2022-11-04T00:51:38.754Z,100.57
2022-11-04T00:54:22.509Z,110.00
2022-11-04T00:57:08.893Z,98.63
2022-11-04T01:00:04.561Z,96.13
2022-11-04T01:02:44.449Z,97.85
2022-11-04T01:05:34.497Z,89.22
2022-11-04T01:08:31.278Z,92.50
2022-11-04T01:11:19.571Z,87.20
2022-11-04T01:14:08.289Z,87.53
2022-11-04T01:16:52.933Z,88.78
2022-11-04T01:19:40.652Z,85.65
2022-11-04T01:22:23.508Z,100.45
2022-11-04T01:25:13.203Z,94.70
2022-11-04T01:28:02.212Z,90.05
2022-11-04T01:30:50.440Z,92.03
2022-11-04T01:33:36.800Z,90.22
2022-11-04T01:36:16.992Z,93.78
2022-11-04T01:39:02.945Z,98.83
2022-11-04T01:41:52.582Z,100.07
2022-11-04T01:44:52.537Z,104.95
2022-11-04T01:47:46.326Z,103.72
2022-11-04T01:50:33.518Z,92.53
2022-11-04T01:53:31.522Z,88.60
2022-11-04T01:56:26.526Z,102.70
2022-11-04T01:59:07.439Z,107.65
2022-11-04T02:04:34.878Z,99.07
2022-11-04T02:07:21.895Z,91.90
2022-11-04T02:10:07.859Z,99.57
2022-11-04T02:12:56.986Z,104.32
2022-11-04T02:15:58.520Z,99.72
2022-11-04T02:18:52.616Z,106.32
2022-11-04T02:21:43.526Z,92.85
2022-11-04T02:25:17.025Z,93.78
2022-11-04T02:28:21.158Z,105.75
2022-11-04T02:31:20.498Z,106.10
2022-11-04T02:34:04.378Z,93.60
2022-11-04T02:37:27.123Z,97.68
2022-11-04T02:40:24.971Z,100.93
2022-11-04T02:43:32.646Z,110.95
2022-11-04T02:46:47.411Z,97.53
2022-11-04T02:49:39.320Z,92.47
2022-11-04T02:52:30.238Z,98.18
2022-11-04T02:55:28.738Z,104.53
2022-11-04T02:58:13.637Z,104.05
2022-11-04T03:01:01.633Z,102.82
2022-11-04T03:03:55.848Z,94.25
2022-11-04T03:06:42.764Z,92.70
2022-11-04T03:09:31.248Z,107.20
2022-11-04T03:12:15.112Z,106.38
2022-11-04T03:15:08.517Z,97.90
2022-11-04T03:18:00.676Z,95.57
2022-11-04T03:20:49.339Z,94.25
2022-11-04T03:23:41.906Z,96.97
2022-11-04T03:26:56.040Z,93.68
2022-11-04T03:30:26.255Z,92.85
2022-11-04T03:33:30.061Z,97.45
2022-11-04T03:36:11.158Z,93.00
2022-11-04T03:38:59.712Z,107.47
2022-11-04T03:42:00.364Z,102.22
2022-11-04T03:44:41.592Z,100.80
2022-11-04T03:47:17.209Z,105.65
2022-11-04T03:50:08.277Z,99.15
2022-11-04T03:52:55.113Z,105.65
2022-11-04T03:55:45.402Z,106.13
2022-11-04T03:59:01.391Z,108.90
2022-11-04T04:02:00.795Z,101.00
2022-11-04T04:04:46.329Z,107.32
2022-11-04T04:07:43.171Z,110.50
2022-11-04T04:10:47.961Z,111.90
2022-11-04T04:13:47.263Z,111.57
2022-11-04T04:16:38.329Z,116.65
2022-11-04T04:19:27.329Z,109.72
2022-11-04T04:22:15.590Z,114.30
2022-11-04T04:25:19.025Z,99.95
2022-11-04T04:28:11.516Z,111.68
2022-11-04T04:30:57.689Z,111.10
2022-11-04T04:33:45.630Z,113.45
2022-11-04T04:36:32.408Z,101.57
2022-11-04T04:39:31.830Z,109.30
2022-11-04T04:42:32.170Z,98.15
2022-11-04T04:45:19.725Z,104.53
2022-11-04T04:48:03.692Z,110.00
2022-11-04T04:51:02.223Z,107.43
2022-11-04T04:53:40.766Z,103.32
2022-11-04T04:56:27.434Z,109.57
2022-11-04T04:59:10.988Z,99.70
2022-11-04T05:01:56.640Z,112.38
2022-11-04T05:04:37.385Z,119.75
2022-11-04T05:07:15.896Z,107.55
2022-11-04T05:09:56.733Z,119.60
2022-11-04T05:12:54.274Z,120.15
2022-11-04T05:15:36.285Z,116.25
2022-11-04T05:18:20.541Z,115.82
2022-11-04T05:21:22.192Z,121.28
2022-11-04T05:24:00.429Z,121.13
2022-11-04T05:26:43.099Z,111.22
2022-11-04T05:29:35.518Z,108.25
2022-11-04T05:32:21.519Z,107.13
2022-11-04T05:35:04.638Z,103.32
2022-11-04T05:37:45.514Z,112.82
2022-11-04T05:40:36.676Z,112.22
2022-11-04T05:43:23.521Z,123.00
2022-11-04T05:46:11.882Z,120.45
2022-11-04T05:48:53.554Z,119.13
2022-11-04T05:51:46.912Z,122.57
2022-11-04T05:54:30.483Z,134.68
2022-11-04T05:57:20.386Z,127.63
2022-11-04T06:00:00.276Z,131.50
2022-11-04T06:02:52.609Z,130.47
2022-11-04T06:05:33.278Z,120.25
2022-11-04T06:08:20.298Z,120.25
2022-11-04T06:10:58.686Z,125.45
2022-11-04T06:14:06.132Z,120.43
2022-11-04T06:16:52.390Z,116.20
2022-11-04T06:19:41.222Z,123.00
2022-11-04T06:22:22.489Z,126.70
2022-11-04T06:25:14.528Z,123.45
2022-11-04T06:28:05.550Z,120.50
2022-11-04T06:30:56.322Z,122.68
2022-11-04T06:33:50.514Z,117.95
2022-11-04T06:36:34.544Z,132.35
2022-11-04T06:39:20.498Z,118.28
2022-11-04T06:42:04.555Z,111.07
2022-11-04T06:44:47.441Z,120.88
2022-11-04T06:47:33.517Z,136.23
2022-11-04T06:50:27.734Z,113.72
2022-11-04T06:53:12.503Z,119.53
2022-11-04T06:56:06.876Z,128.38
2022-11-04T06:59:00.462Z,119.70
2022-11-04T07:01:49.934Z,120.72
2022-11-04T07:04:34.499Z,120.18
2022-11-04T07:07:17.245Z,116.22
2022-11-04T07:10:05.571Z,127.10
2022-11-04T07:12:42.806Z,118.28
2022-11-04T07:15:41.538Z,124.57
2022-11-04T07:18:27.277Z,115.53
2022-11-04T07:21:10.164Z,123.45
2022-11-04T07:23:56.435Z,108.18
2022-11-04T07:26:39.866Z,113.30
2022-11-04T07:29:20.258Z,112.00
2022-11-04T07:31:57.738Z,106.22
2022-11-04T07:34:43.498Z,112.47
2022-11-04T07:37:29.830Z,107.22
2022-11-04T07:40:08.740Z,93.25
2022-11-04T07:42:59.973Z,110.57
2022-11-04T07:46:03.894Z,94.18
2022-11-04T07:48:46.864Z,99.40
2022-11-04T07:51:26.626Z,91.72
2022-11-04T07:54:11.468Z,97.03
2022-11-04T07:56:52.425Z,94.47
2022-11-04T07:59:35.319Z,88.38
2022-11-04T08:02:13.834Z,92.60
2022-11-04T08:05:06.506Z,95.97
2022-11-04T08:07:51.804Z,96.78
2022-11-04T08:10:42.508Z,97.30
2022-11-04T08:13:36.586Z,98.55
2022-11-04T08:16:20.498Z,101.03
2022-11-04T08:19:10.460Z,86.30
2022-11-04T08:21:50.881Z,90.32
2022-11-04T08:24:37.994Z,100.90
2022-11-04T08:27:27.928Z,89.40
2022-11-04T08:30:13.967Z,95.55
2022-11-04T08:33:00.495Z,99.70
2022-11-04T08:35:47.199Z,101.53
2022-11-04T08:38:32.772Z,87.95
2022-11-04T08:41:19.446Z,99.97
2022-11-04T08:44:04.318Z,89.15
2022-11-04T08:46:56.077Z,92.60
2022-11-04T08:49:42.869Z,93.38
2022-11-04T08:52:25.869Z,103.18
2022-11-04T08:55:10.139Z,96.10
2022-11-04T08:58:01.314Z,98.70
2022-11-04T09:00:40.054Z,108.85
2022-11-04T09:03:24.540Z,97.05
2022-11-04T09:06:11.805Z,97.40
2022-11-04T09:08:58.291Z,100.72
2022-11-04T09:11:45.461Z,94.78
2022-11-04T09:14:29.485Z,97.30
2022-11-04T09:17:12.480Z,103.50
2022-11-04T09:19:58.453Z,100.85
2022-11-04T09:22:46.089Z,91.15
2022-11-04T09:25:33.264Z,94.43
2022-11-04T09:28:25.725Z,97.25
2022-11-04T09:31:14.792Z,96.47
2022-11-04T09:34:06.667Z,96.90
2022-11-04T09:37:03.507Z,96.70
2022-11-04T09:39:54.102Z,103.68
2022-11-04T09:42:40.349Z,98.55
2022-11-04T09:45:23.370Z,98.15
2022-11-04T09:48:14.956Z,95.38
2022-11-04T09:57:24.975Z,97.75
2022-11-04T10:00:20.578Z,98.97
2022-11-04T10:03:13.439Z,102.57
2022-11-04T10:06:18.858Z,111.30
2022-11-04T10:09:29.236Z,98.35
2022-11-04T10:12:24.491Z,111.97
2022-11-04T10:15:28.306Z,109.53
2022-11-04T10:18:38.135Z,106.43
2022-11-04T10:21:23.509Z,110.28
2022-11-04T10:24:21.547Z,102.15
2022-11-04T10:27:01.571Z,112.22
2022-11-04T10:30:09.151Z,108.03
2022-11-04T10:33:13.868Z,117.93
2022-11-04T10:36:22.447Z,108.53
2022-11-04T10:39:18.415Z,108.60
2022-11-04T10:42:15.518Z,117.57
2022-11-04T10:45:04.029Z,105.68
2022-11-04T10:48:33.909Z,110.65
2022-11-04T10:51:25.483Z,127.30
2022-11-04T10:54:05.415Z,119.43
2022-11-04T10:56:57.300Z,111.38
2022-11-04T11:00:14.545Z,116.03
2022-11-04T11:03:02.792Z,117.50
2022-11-04T11:05:56.977Z,112.43
2022-11-04T11:08:48.392Z,106.85
2022-11-04T11:11:46.507Z,108.90
2022-11-04T11:14:49.196Z,103.72
2022-11-04T11:17:39.264Z,100.90
2022-11-04T11:20:35.847Z,104.93
2022-11-04T11:23:45.287Z,106.38
2022-11-04T11:26:48.117Z,104.15
2022-11-04T11:29:42.162Z,105.63
2022-11-04T11:32:48.865Z,101.20
2022-11-04T11:35:44.550Z,104.32
2022-11-04T11:38:45.800Z,102.05
2022-11-04T11:41:29.044Z,109.07
2022-11-04T11:44:32.626Z,103.63
2022-11-04T11:47:28.602Z,103.25
2022-11-04T11:51:09.309Z,102.93
2022-11-04T11:54:14.729Z,111.60
2022-11-04T11:57:25.110Z,91.90
2022-11-04T12:00:38.046Z,97.65
2022-11-04T12:10:51.767Z,79.25
2022-11-04T12:13:58.606Z,84.03
2022-11-04T12:17:28.090Z,90.53
2022-11-04T12:20:32.512Z,95.40
2022-11-04T12:23:42.912Z,84.15
2022-11-04T12:26:39.025Z,89.05
2022-11-04T12:29:39.872Z,88.28
2022-11-04T12:32:58.494Z,93.10
2022-11-04T12:36:11.235Z,85.57
2022-11-04T12:38:56.329Z,90.97
2022-11-04T12:42:19.525Z,87.15
2022-11-04T12:45:14.776Z,81.85
2022-11-04T12:47:58.598Z,80.63
2022-11-04T12:51:21.173Z,83.40
2022-11-04T12:57:40.855Z,87.57
2022-11-04T13:00:40.649Z,82.28
2022-11-04T13:03:32.883Z,83.80
2022-11-04T13:06:34.477Z,85.40
2022-11-04T13:09:22.834Z,76.95
2022-11-04T13:12:26.633Z,76.72
2022-11-04T13:15:13.905Z,80.90
2022-11-04T13:17:54.312Z,79.43
2022-11-04T13:20:35.736Z,80.53
2022-11-04T13:23:46.248Z,73.53
2022-11-04T13:26:31.663Z,83.82
2022-11-04T13:29:44.971Z,73.10
2022-11-04T13:32:58.011Z,73.93
2022-11-04T13:36:22.656Z,78.40
2022-11-04T13:39:08.503Z,77.53
2022-11-04T13:42:16.692Z,79.85
2022-11-04T14:25:00.489Z,103.85
2022-11-04T14:27:53.676Z,90.95
2022-11-04T14:30:54.016Z,81.40
2022-11-04T14:33:37.338Z,88.70
2022-11-04T14:36:37.544Z,76.60
2022-11-04T14:39:41.718Z,76.45
2022-11-04T14:42:37.488Z,72.15
2022-11-04T14:45:25.471Z,75.05
2022-11-04T14:48:31.683Z,80.38
2022-11-04T14:51:13.471Z,79.57
2022-11-04T14:53:40.453Z,72.93
2022-11-04T14:56:24.781Z,68.47
2022-11-04T14:59:06.496Z,72.97
2022-11-04T15:02:11.885Z,77.53
2022-11-04T15:05:05.493Z,76.22
2022-11-04T15:10:44.957Z,69.20
2022-11-04T15:13:33.499Z,69.53
2022-11-04T15:16:36.038Z,64.43
2022-11-04T15:19:24.044Z,61.00
2022-11-04T15:22:16.474Z,69.57
2022-11-04T15:25:00.354Z,71.53
2022-11-04T15:27:47.597Z,77.00
2022-11-04T15:31:02.510Z,78.10
2022-11-04T15:34:17.895Z,79.18
2022-11-04T15:37:18.976Z,81.47
2022-11-04T15:40:01.494Z,73.53
2022-11-04T15:42:49.107Z,74.43
2022-11-04T15:46:23.387Z,67.05
2022-11-04T15:49:25.059Z,66.05
2022-11-04T15:52:20.127Z,68.05
2022-11-04T15:55:04.732Z,75.53
2022-11-04T15:57:44.566Z,66.60
2022-11-04T16:00:39.659Z,67.25
2022-11-04T16:03:27.477Z,77.82
2022-11-04T16:06:17.296Z,66.85
2022-11-04T16:09:17.473Z,77.53
2022-11-04T16:12:22.303Z,77.35
2022-11-04T16:15:03.450Z,72.22
2022-11-04T16:18:03.780Z,69.07
2022-11-04T16:20:59.881Z,73.75
2022-11-04T16:23:50.451Z,69.13
2022-11-04T16:26:47.356Z,77.25
2022-11-04T16:29:48.743Z,72.50
2022-11-04T16:32:48.542Z,77.80
2022-11-04T16:35:32.978Z,78.80
2022-11-04T16:38:24.554Z,78.35
2022-11-04T16:41:14.493Z,80.90
2022-11-04T16:44:01.647Z,80.63
2022-11-04T16:46:49.678Z,89.65
2022-11-04T16:49:32.506Z,84.13
2022-11-04T16:52:21.015Z,81.03
2022-11-04T16:55:05.463Z,82.25
2022-11-04T16:57:52.502Z,84.40
2022-11-04T17:00:38.071Z,73.82
2022-11-04T17:03:35.556Z,76.38
2022-11-04T17:06:14.462Z,82.25
2022-11-04T17:12:15.024Z,85.45
2022-11-04T17:15:06.468Z,87.00
2022-11-04T17:17:50.395Z,93.30
2022-11-04T17:20:36.367Z,87.65
2022-11-04T17:23:20.313Z,91.32
2022-11-04T17:26:09.472Z,84.13
2022-11-04T17:28:58.818Z,79.10
2022-11-04T17:31:48.029Z,83.75
2022-11-04T17:34:32.539Z,92.78
2022-11-04T17:37:18.165Z,79.18
2022-11-04T17:40:01.657Z,82.60
2022-11-04T17:43:11.939Z,72.18
2022-11-04T17:46:21.262Z,79.80
2022-11-04T17:49:23.769Z,84.28
2022-11-04T17:52:11.483Z,75.38
2022-11-04T17:54:59.910Z,83.43
2022-11-04T17:57:40.791Z,72.57
2022-11-04T18:00:29.758Z,78.50
2022-11-04T18:03:15.087Z,76.72
2022-11-04T18:06:09.229Z,82.80
2022-11-04T18:09:04.455Z,74.55
2022-11-04T18:12:00.795Z,74.70
2022-11-04T18:14:42.765Z,78.28
2022-11-04T18:17:29.675Z,79.03
2022-11-04T18:20:18.499Z,78.53
2022-11-04T18:23:09.569Z,74.25
2022-11-04T18:25:51.452Z,69.72
2022-11-04T18:28:35.456Z,72.60
2022-11-04T18:31:27.557Z,72.00
2022-11-04T18:34:17.602Z,61.05
2022-11-04T18:37:00.859Z,67.68
2022-11-04T18:39:50.277Z,69.18
2022-11-04T18:42:30.751Z,70.35
2022-11-04T18:45:11.385Z,83.00
2022-11-04T18:48:03.456Z,78.45
2022-11-04T18:50:44.273Z,74.97
2022-11-04T18:53:30.664Z,69.25
2022-11-04T18:56:33.005Z,70.47
2022-11-04T18:59:16.660Z,83.72
2022-11-04T19:02:05.672Z,91.20
2022-11-04T19:04:46.432Z,104.50
2022-11-04T19:07:50.070Z,102.05
2022-11-04T19:10:28.479Z,109.82
2022-11-04T19:13:26.567Z,85.80
2022-11-04T19:16:13.352Z,83.17
2022-11-04T19:19:00.495Z,106.63
2022-11-04T19:21:37.842Z,108.78
2022-11-04T19:24:26.011Z,110.20
2022-11-04T19:27:14.106Z,113.28
2022-11-04T19:29:56.483Z,105.35
2022-11-04T19:32:43.277Z,101.70
2022-11-04T19:35:23.754Z,107.72
2022-11-04T19:38:15.786Z,122.40
2022-11-04T19:41:43.987Z,108.35
2022-11-04T19:44:32.310Z,103.28
2022-11-04T19:47:16.449Z,112.03
2022-11-04T19:49:57.485Z,109.53
2022-11-04T19:52:41.426Z,110.82
2022-11-04T19:55:20.644Z,102.72
2022-11-04T19:58:01.920Z,111.43
2022-11-04T20:00:44.557Z,96.07
2022-11-04T20:03:25.015Z,102.43
2022-11-04T20:06:11.071Z,104.30
2022-11-04T20:08:54.831Z,95.55
2022-11-04T20:11:56.654Z,99.82
2022-11-04T20:14:45.897Z,85.20
2022-11-04T20:17:29.382Z,97.28
2022-11-04T20:20:12.484Z,91.57
2022-11-04T20:23:03.733Z,92.82
2022-11-04T20:25:52.788Z,89.40
2022-11-04T20:28:37.009Z,82.70
2022-11-04T20:31:21.436Z,84.13
2022-11-04T20:34:10.559Z,80.97
2022-11-04T20:37:03.135Z,87.07
2022-11-04T20:39:46.825Z,76.90
2022-11-04T20:42:27.944Z,74.88
2022-11-04T20:47:58.820Z,88.20
2022-11-04T20:50:42.270Z,83.28
2022-11-04T20:53:25.156Z,90.10
2022-11-04T20:56:13.472Z,90.50
2022-11-04T20:58:59.871Z,88.32
2022-11-04T21:01:38.682Z,88.88
2022-11-04T21:04:19.214Z,89.13
2022-11-04T21:07:02.807Z,104.68
2022-11-04T21:09:43.788Z,96.22
2022-11-04T21:15:28.566Z,93.72
2022-11-04T21:18:18.188Z,100.63
2022-11-04T21:21:04.137Z,114.50
2022-11-04T21:23:47.564Z,105.88
2022-11-04T21:29:20.687Z,176.98
2022-11-04T21:32:07.814Z,128.75
2022-11-04T21:37:37.208Z,109.97
2022-11-04T21:40:25.572Z,114.13
2022-11-04T21:43:17.617Z,115.38
2022-11-04T21:45:55.020Z,117.72
2022-11-04T21:48:44.463Z,117.15
2022-11-04T21:51:29.081Z,118.53
2022-11-04T21:54:17.123Z,119.32
2022-11-04T21:57:04.447Z,110.50
2022-11-04T21:59:49.439Z,112.95
2022-11-04T22:02:24.569Z,104.72
2022-11-04T22:05:08.529Z,114.13
2022-11-04T22:10:49.452Z,119.30
2022-11-04T22:13:28.677Z,130.90
2022-11-04T22:16:31.083Z,132.82
2022-11-04T22:19:10.491Z,118.60
2022-11-04T22:21:56.979Z,112.05
2022-11-04T22:24:42.992Z,115.47
2022-11-04T22:27:26.470Z,121.00
2022-11-04T22:30:20.509Z,114.85
2022-11-04T22:33:01.463Z,110.13
2022-11-04T22:35:48.497Z,118.43
2022-11-04T22:38:32.650Z,128.52
2022-11-04T22:41:26.463Z,123.38
2022-11-04T22:44:12.484Z,123.68
2022-11-04T22:46:54.576Z,130.25
2022-11-04T22:49:41.056Z,131.73
2022-11-04T22:52:24.475Z,123.70
2022-11-04T22:55:14.458Z,128.70
2022-11-04T22:58:06.092Z,132.25
2022-11-04T23:00:51.679Z,131.23
2022-11-04T23:03:34.912Z,123.28
2022-11-04T23:06:18.482Z,138.15
2022-11-04T23:09:10.749Z,150.10
2022-11-04T23:12:04.553Z,155.23
2022-11-04T23:14:42.598Z,173.88
2022-11-04T23:17:40.981Z,186.93
2022-11-04T23:20:19.752Z,184.10
2022-11-04T23:23:21.255Z,185.98
2022-11-04T23:26:02.673Z,193.40
2022-11-04T23:29:01.767Z,190.43
2022-11-04T23:31:50.726Z,175.70
2022-11-04T23:34:38.764Z,195.45
2022-11-04T23:37:21.395Z,194.35
2022-11-04T23:40:12.434Z,181.23
2022-11-04T23:42:56.611Z,178.55
2022-11-04T23:45:56.177Z,184.15
2022-11-04T23:48:51.583Z,173.55
2022-11-04T23:51:50.010Z,165.27
2022-11-04T23:54:54.149Z,165.75
2022-11-04T23:57:47.755Z,156.63
